Dezful, Dezful Airport (OIAD)

NameDezful Airport
CityDezful
CountryIran (Islamic Republic of)
ICAOOIAD
IATADEF
Altitude152 m
CoordinatesGoogle Map
Live Air TrafficLiveATC.net
METAROIAD 160800Z 00000KT 4000 HZ NSC 40/20 Q1007 A2975
2017-09-16 08:00:00 Wind: North (0°) 0 m/s - Visibility: 4000 m - Weather: Haze - Temperature: 40 °C - Dew point: 20 °C - Humidity: 31.3% - Pressure: 1007.45 hPa
Statistics

The table below shows the detailed information of all flights to/from Dezful, Dezful Airport (OIAD).